Guthrie, Missouri
Current Conditions -  °F | °C
As of 9:53 AM on Thursday 23 Oct 2014 (Local Time) from KJEF Reporting Station
Overcast Overcast  
Wind Chill: 53°   Ceiling: 4800
Heat Index: 53°   Visibility: 10mi
Dew Point: 44°   Wind: 3mph
Humidity: 71%   Direction: NA
Pressure: 30.18"   Gusts: NA
Location:  38.718°N, 92.0861°W
Report Text: KJEF 231453Z VRB03KT 10SM OVC048 12/07 A3018 RMK AO2 SLP210 T01170067 51005
Loading
Personal Weather Stations






























Interactive Weather Map
Tropical Storm Tracking
New forecast layout! Learn more

10-Day Weather Forecast

Advertisements
Track Severe Weather on mobile